createdAt,value
2018-07-26T00:01:10.472Z,18.30
2018-07-26T00:03:38.939Z,18.60
2018-07-26T00:06:07.509Z,18.40
2018-07-26T00:08:36.074Z,18.80
2018-07-26T00:16:00.939Z,18.50
2018-07-26T00:18:29.535Z,18.70
2018-07-26T00:20:57.972Z,18.70
2018-07-26T00:23:27.382Z,19.10
2018-07-26T00:28:24.096Z,18.90
2018-07-26T00:30:52.646Z,18.80
2018-07-26T00:35:49.237Z,18.70
2018-07-26T00:38:17.764Z,18.20
2018-07-26T00:40:46.280Z,17.80
2018-07-26T00:48:11.121Z,18.60
2018-07-26T00:50:39.607Z,18.30
2018-07-26T00:58:04.342Z,18.00
2018-07-26T01:00:32.773Z,17.80
2018-07-26T01:03:01.260Z,17.80
2018-07-26T01:05:29.722Z,17.80
2018-07-26T01:07:58.114Z,17.60
2018-07-26T01:10:26.700Z,18.00
2018-07-26T01:15:23.392Z,17.30
2018-07-26T01:17:51.898Z,17.60
2018-07-26T01:20:20.366Z,17.60
2018-07-26T01:22:48.922Z,17.40
2018-07-26T01:25:17.416Z,17.40
2018-07-26T01:27:45.962Z,17.60
2018-07-26T01:30:14.493Z,17.30
2018-07-26T01:32:43.018Z,17.20
2018-07-26T01:35:11.478Z,17.20
2018-07-26T01:42:47.496Z,17.10
2018-07-26T01:45:15.961Z,16.90
2018-07-26T01:47:44.418Z,16.90
2018-07-26T01:52:41.223Z,16.90
2018-07-26T02:00:06.280Z,16.70
2018-07-26T02:02:34.750Z,16.60
2018-07-26T02:05:03.194Z,16.60
2018-07-26T02:07:31.745Z,16.70
2018-07-26T02:12:28.393Z,16.20
2018-07-26T02:14:56.879Z,16.70
2018-07-26T02:17:25.319Z,16.60
2018-07-26T02:19:53.731Z,16.70
2018-07-26T02:22:22.245Z,16.40
2018-07-26T02:24:50.721Z,16.30
2018-07-26T02:27:25.311Z,16.40
2018-07-26T02:34:50.145Z,16.50
2018-07-26T02:39:46.767Z,16.10
2018-07-26T02:44:43.392Z,16.30
2018-07-26T02:49:40.113Z,16.40
2018-07-26T02:52:08.617Z,16.20
2018-07-26T02:54:37.204Z,16.30
2018-07-26T02:57:05.699Z,16.60
2018-07-26T02:59:34.185Z,16.30
2018-07-26T03:02:02.615Z,16.10
2018-07-26T03:04:31.069Z,15.80
2018-07-26T03:06:59.529Z,16.10
2018-07-26T03:09:27.979Z,15.80
2018-07-26T03:14:24.655Z,15.80
2018-07-26T03:16:53.162Z,16.30
2018-07-26T03:24:18.020Z,16.10
2018-07-26T03:29:14.737Z,16.40
2018-07-26T03:31:44.746Z,16.20
2018-07-26T03:34:15.742Z,16.30
2018-07-26T03:36:44.321Z,16.20
2018-07-26T03:41:40.932Z,15.90
2018-07-26T03:44:09.516Z,15.70
2018-07-26T03:49:06.738Z,15.60
2018-07-26T03:51:35.912Z,16.00
2018-07-26T03:54:04.466Z,15.70
2018-07-26T03:56:33.665Z,16.10
2018-07-26T04:01:30.587Z,15.70
2018-07-26T04:03:59.084Z,15.80
2018-07-26T04:06:27.690Z,15.70
2018-07-26T04:16:21.099Z,15.60
2018-07-26T04:23:46.302Z,15.70
2018-07-26T04:26:14.951Z,15.70
2018-07-26T04:28:43.555Z,15.80
2018-07-26T04:31:12.135Z,15.90
2018-07-26T04:33:40.582Z,16.00
2018-07-26T04:38:37.224Z,16.10
2018-07-26T04:41:05.727Z,16.20
2018-07-26T04:43:34.233Z,16.20
2018-07-26T04:48:31.499Z,16.30
2018-07-26T04:50:59.994Z,16.30
2018-07-26T04:53:28.518Z,16.40
2018-07-26T04:55:56.987Z,16.50
2018-07-26T04:58:25.535Z,16.70
2018-07-26T05:00:54.348Z,16.60
2018-07-26T05:03:22.947Z,16.70
2018-07-26T05:05:51.379Z,16.70
2018-07-26T05:10:48.068Z,16.70
2018-07-26T05:13:16.625Z,16.70
2018-07-26T05:15:45.139Z,16.90
2018-07-26T05:18:13.712Z,17.00
2018-07-26T05:20:42.121Z,17.00
2018-07-26T05:23:11.997Z,17.00
2018-07-26T05:25:40.607Z,17.20
2018-07-26T05:28:09.074Z,17.30
2018-07-26T05:35:33.993Z,17.40
2018-07-26T05:38:02.519Z,17.70
2018-07-26T05:40:30.992Z,17.80
2018-07-26T05:47:55.699Z,17.80
2018-07-26T05:50:24.208Z,18.10
2018-07-26T05:52:52.652Z,18.20
2018-07-26T05:55:21.176Z,18.30
2018-07-26T05:57:49.646Z,18.30
2018-07-26T06:00:18.104Z,18.50
2018-07-26T06:02:46.578Z,18.40
2018-07-26T06:05:15.132Z,18.40
2018-07-26T06:07:43.588Z,18.50
2018-07-26T06:10:12.101Z,18.60
2018-07-26T06:12:40.548Z,18.60
2018-07-26T06:15:11.194Z,18.70
2018-07-26T06:17:40.014Z,18.90
2018-07-26T06:20:10.361Z,18.90
2018-07-26T06:22:39.219Z,19.20
2018-07-26T06:25:08.409Z,19.60
2018-07-26T06:27:36.909Z,19.80
2018-07-26T06:30:08.042Z,20.20
2018-07-26T06:32:36.557Z,20.70
2018-07-26T06:35:05.631Z,20.90
2018-07-26T06:37:34.165Z,21.20
2018-07-26T06:40:02.724Z,21.60
2018-07-26T06:42:31.288Z,21.70
2018-07-26T06:44:59.740Z,21.70
2018-07-26T06:47:28.187Z,21.90
2018-07-26T06:49:56.660Z,22.20
2018-07-26T06:52:25.253Z,22.40
2018-07-26T06:54:53.946Z,22.50
2018-07-26T06:59:50.605Z,22.10
2018-07-26T07:02:19.242Z,22.50
2018-07-26T07:04:47.733Z,22.40
2018-07-26T07:07:16.198Z,22.70
2018-07-26T07:09:44.710Z,22.70
2018-07-26T07:12:13.212Z,22.90
2018-07-26T07:14:41.728Z,22.80
2018-07-26T07:17:10.198Z,23.00
2018-07-26T07:19:38.654Z,23.00
2018-07-26T07:22:07.159Z,23.40
2018-07-26T07:29:32.025Z,24.10
2018-07-26T07:34:28.610Z,24.60
2018-07-26T07:36:57.151Z,24.70
2018-07-26T07:39:25.655Z,24.80
2018-07-26T07:41:54.104Z,24.60
2018-07-26T07:44:22.557Z,24.90
2018-07-26T07:46:51.067Z,24.90
2018-07-26T07:49:19.566Z,25.00
2018-07-26T07:51:48.133Z,24.20
2018-07-26T07:54:16.685Z,24.10
2018-07-26T07:56:45.349Z,24.40
2018-07-26T07:59:13.783Z,24.80
2018-07-26T08:01:42.388Z,25.30
2018-07-26T08:04:10.972Z,25.10
2018-07-26T08:06:39.407Z,25.40
2018-07-26T08:09:09.824Z,25.80
2018-07-26T08:11:38.599Z,25.80
2018-07-26T08:14:07.729Z,26.10
2018-07-26T08:16:36.192Z,26.40
2018-07-26T08:19:04.743Z,26.50
2018-07-26T08:21:33.341Z,26.50
2018-07-26T08:24:01.810Z,27.00
2018-07-26T08:26:30.274Z,26.80
2018-07-26T08:28:58.814Z,27.10
2018-07-26T08:31:27.250Z,26.90
2018-07-26T08:33:55.733Z,26.80
2018-07-26T08:36:24.255Z,26.80
2018-07-26T08:38:52.793Z,27.00
2018-07-26T08:41:21.503Z,27.00
2018-07-26T08:43:50.010Z,27.00
2018-07-26T08:46:18.602Z,27.00
2018-07-26T08:48:47.112Z,27.20
2018-07-26T08:51:15.613Z,27.20
2018-07-26T08:53:44.119Z,27.70
2018-07-26T08:58:40.794Z,28.40
2018-07-26T09:03:37.450Z,28.30
2018-07-26T09:06:05.920Z,28.80
2018-07-26T09:08:34.551Z,28.30
2018-07-26T09:11:03.111Z,28.90
2018-07-26T09:13:31.682Z,29.50
2018-07-26T09:16:00.485Z,29.90
2018-07-26T09:20:57.171Z,29.00
2018-07-26T09:23:30.183Z,29.30
2018-07-26T09:28:28.920Z,29.20
2018-07-26T09:31:08.993Z,29.70
2018-07-26T09:33:37.597Z,29.60
2018-07-26T09:36:06.131Z,29.80
2018-07-26T09:38:34.696Z,30.10
2018-07-26T09:41:03.119Z,30.20
2018-07-26T09:43:31.514Z,29.80
2018-07-26T09:45:59.957Z,29.90
2018-07-26T09:48:28.387Z,29.90
2018-07-26T09:53:25.254Z,30.00
2018-07-26T09:55:53.801Z,30.10
2018-07-26T09:58:22.364Z,30.10
2018-07-26T10:00:56.290Z,30.50
2018-07-26T10:03:24.782Z,30.60
2018-07-26T10:05:53.343Z,30.80
2018-07-26T10:08:22.129Z,30.60
2018-07-26T10:10:50.779Z,30.50
2018-07-26T10:13:19.174Z,29.70
2018-07-26T10:15:47.633Z,29.70
2018-07-26T10:18:16.152Z,30.10
2018-07-26T10:25:41.068Z,30.20
2018-07-26T10:28:09.684Z,30.40
2018-07-26T10:30:38.213Z,30.70
2018-07-26T10:33:07.063Z,31.20
2018-07-26T10:35:35.715Z,31.30
2018-07-26T10:38:04.259Z,30.30
2018-07-26T10:40:32.838Z,30.60
2018-07-26T10:43:01.287Z,30.30
2018-07-26T10:45:29.761Z,30.50
2018-07-26T10:47:58.181Z,30.80
2018-07-26T10:50:26.666Z,31.20
2018-07-26T10:52:55.109Z,31.60
2018-07-26T10:55:23.659Z,32.20
2018-07-26T10:57:52.141Z,31.70
2018-07-26T11:00:20.687Z,31.30
2018-07-26T11:02:49.246Z,31.30
2018-07-26T11:05:17.922Z,31.50
2018-07-26T11:07:46.348Z,32.00
2018-07-26T11:10:14.920Z,32.20
2018-07-26T11:12:43.347Z,32.40
2018-07-26T11:15:21.996Z,32.20
2018-07-26T11:17:50.610Z,31.90
2018-07-26T11:20:20.102Z,32.30
2018-07-26T11:22:48.661Z,32.70
2018-07-26T11:25:17.197Z,32.40
2018-07-26T11:27:45.632Z,32.10
2018-07-26T11:30:14.308Z,32.20
2018-07-26T11:32:43.123Z,32.10
2018-07-26T11:35:12.275Z,32.10
2018-07-26T11:37:40.718Z,31.70
2018-07-26T11:40:09.286Z,32.20
2018-07-26T11:42:38.023Z,33.60
2018-07-26T11:45:07.955Z,32.70
2018-07-26T11:47:36.838Z,32.80
2018-07-26T11:50:06.338Z,32.50
2018-07-26T11:52:34.875Z,32.70
2018-07-26T11:55:03.405Z,33.00
2018-07-26T12:00:08.381Z,32.80
2018-07-26T12:02:49.879Z,32.10
2018-07-26T12:05:20.784Z,32.10
2018-07-26T12:10:18.048Z,30.90
2018-07-26T12:12:46.830Z,30.60
2018-07-26T12:15:25.469Z,30.50
2018-07-26T12:17:54.061Z,30.80
2018-07-26T12:20:22.622Z,31.20
2018-07-26T12:22:51.051Z,31.30
2018-07-26T12:27:47.868Z,31.40
2018-07-26T12:30:16.407Z,31.30
2018-07-26T12:35:13.060Z,31.50
2018-07-26T12:37:41.530Z,31.80
2018-07-26T12:40:10.107Z,31.80
2018-07-26T12:42:38.573Z,31.80
2018-07-26T12:45:07.569Z,31.80
2018-07-26T12:47:36.157Z,31.00
2018-07-26T12:50:05.009Z,30.90
2018-07-26T12:52:33.520Z,30.90
2018-07-26T12:55:02.016Z,30.80
2018-07-26T12:57:30.518Z,30.40
2018-07-26T13:04:55.468Z,29.50
2018-07-26T13:07:23.954Z,29.40
2018-07-26T13:09:52.391Z,29.10
2018-07-26T13:12:20.912Z,28.80
2018-07-26T13:14:49.314Z,28.70
2018-07-26T13:17:18.023Z,28.90
2018-07-26T13:22:15.374Z,28.70
2018-07-26T13:24:43.974Z,28.80
2018-07-26T13:29:40.655Z,28.60
2018-07-26T13:44:30.611Z,28.30
2018-07-26T13:49:27.301Z,28.40
2018-07-26T13:51:55.773Z,28.20
2018-07-26T13:54:24.346Z,28.20
2018-07-26T13:56:52.810Z,28.20
2018-07-26T13:59:21.233Z,28.30
2018-07-26T14:04:17.862Z,28.40
2018-07-26T14:06:46.340Z,28.50
2018-07-26T14:09:14.837Z,28.50
2018-07-26T14:14:11.551Z,28.90
2018-07-26T14:16:40.008Z,29.10
2018-07-26T14:19:09.003Z,29.00
2018-07-26T14:26:39.601Z,29.10
2018-07-26T14:34:04.440Z,28.90
2018-07-26T14:39:01.027Z,28.70
2018-07-26T14:41:29.516Z,28.70
2018-07-26T14:43:57.976Z,27.90
2018-07-26T14:46:26.466Z,28.60
2018-07-26T14:48:54.922Z,28.50
2018-07-26T14:51:23.524Z,28.50
2018-07-26T14:53:51.972Z,28.30
2018-07-26T14:56:20.513Z,28.20
2018-07-26T14:58:49.026Z,28.20
2018-07-26T15:01:17.498Z,28.00
2018-07-26T15:06:14.139Z,27.80
2018-07-26T15:08:42.525Z,27.70
2018-07-26T15:13:39.945Z,27.20
2018-07-26T15:16:08.372Z,27.20
2018-07-26T15:18:36.845Z,27.00
2018-07-26T15:21:05.358Z,27.00
2018-07-26T15:23:33.917Z,26.90
2018-07-26T15:26:02.397Z,27.20
2018-07-26T15:30:59.045Z,27.20
2018-07-26T15:33:27.451Z,27.20
2018-07-26T15:35:55.887Z,27.30
2018-07-26T15:43:20.590Z,27.60
2018-07-26T15:45:49.010Z,27.70
2018-07-26T15:48:17.524Z,27.70
2018-07-26T15:53:14.181Z,27.90
2018-07-26T15:55:42.677Z,27.90
2018-07-26T15:58:11.116Z,27.80
2018-07-26T16:00:39.579Z,27.90
2018-07-26T16:05:36.370Z,27.90
2018-07-26T16:08:04.933Z,28.00
2018-07-26T16:10:33.414Z,28.00
2018-07-26T16:13:02.047Z,28.00
2018-07-26T16:15:30.582Z,28.00
2018-07-26T16:17:59.163Z,27.80
2018-07-26T16:20:27.513Z,27.90
2018-07-26T16:22:56.041Z,27.90
2018-07-26T16:25:24.998Z,27.90
2018-07-26T16:27:54.274Z,28.10
2018-07-26T16:30:23.232Z,28.10
2018-07-26T16:35:20.068Z,28.20
2018-07-26T16:37:48.518Z,28.30
2018-07-26T16:40:17.267Z,28.30
2018-07-26T16:42:45.747Z,28.50
2018-07-26T16:45:14.235Z,28.50
2018-07-26T16:47:42.700Z,28.40
2018-07-26T16:50:11.136Z,28.30
2018-07-26T16:52:39.693Z,28.20
2018-07-26T16:55:08.255Z,28.30
2018-07-26T16:57:36.859Z,28.50
2018-07-26T17:00:07.095Z,28.40
2018-07-26T17:02:35.536Z,28.40
2018-07-26T17:05:04.601Z,28.20
2018-07-26T17:07:33.060Z,28.10
2018-07-26T17:14:57.887Z,28.00
2018-07-26T17:17:26.513Z,28.00
2018-07-26T17:19:54.983Z,27.80
2018-07-26T17:22:23.495Z,27.80
2018-07-26T17:24:52.049Z,27.70
2018-07-26T17:27:20.553Z,27.60
2018-07-26T17:29:49.022Z,27.60
2018-07-26T17:32:17.569Z,27.50
2018-07-26T17:34:46.085Z,27.60
2018-07-26T17:49:35.725Z,26.50
2018-07-26T17:57:00.692Z,26.50
2018-07-26T18:01:57.400Z,26.80
2018-07-26T18:04:25.967Z,26.20
2018-07-26T18:06:54.574Z,26.00
2018-07-26T18:09:23.037Z,26.00
2018-07-26T18:11:51.948Z,25.80
2018-07-26T18:19:20.643Z,25.50
2018-07-26T18:21:49.210Z,25.20
2018-07-26T18:24:17.830Z,25.50
2018-07-26T18:26:47.354Z,25.20
2018-07-26T18:34:12.349Z,24.80
2018-07-26T18:36:40.838Z,24.50
2018-07-26T18:39:11.263Z,24.60
2018-07-26T18:41:39.718Z,24.60
2018-07-26T18:46:38.917Z,24.50
2018-07-26T18:49:09.197Z,24.10
2018-07-26T18:51:37.921Z,24.00
2018-07-26T18:56:35.754Z,24.00
2018-07-26T19:01:32.675Z,23.60
2018-07-26T19:04:01.519Z,23.70
2018-07-26T19:06:31.113Z,23.70
2018-07-26T19:08:59.852Z,23.70
2018-07-26T19:11:28.625Z,23.60
2018-07-26T19:13:57.230Z,23.60
2018-07-26T19:16:25.789Z,23.70
2018-07-26T19:18:54.673Z,23.90
2018-07-26T19:21:23.248Z,23.60
2018-07-26T19:23:52.553Z,23.50
2018-07-26T19:26:21.133Z,23.80
2018-07-26T19:28:50.072Z,23.70
2018-07-26T19:31:18.701Z,23.90
2018-07-26T19:33:47.332Z,23.90
2018-07-26T19:36:16.161Z,23.40
2018-07-26T19:38:44.991Z,23.60
2018-07-26T19:41:14.855Z,23.40
2018-07-26T19:43:44.380Z,23.80
2018-07-26T19:48:41.176Z,23.80
2018-07-26T19:53:41.263Z,23.50
2018-07-26T19:56:09.933Z,23.20
2018-07-26T19:58:38.615Z,23.20
2018-07-26T20:03:36.637Z,23.20
2018-07-26T20:06:05.702Z,23.20
2018-07-26T20:11:03.562Z,23.10
2018-07-26T20:13:32.318Z,23.30
2018-07-26T20:18:29.406Z,23.00
2018-07-26T20:20:58.182Z,22.90
2018-07-26T20:23:26.822Z,22.90
2018-07-26T20:25:55.521Z,23.00
2018-07-26T20:28:24.110Z,22.70
2018-07-26T20:30:53.065Z,22.70
2018-07-26T20:33:21.743Z,22.80
2018-07-26T20:35:50.335Z,22.50
2018-07-26T20:38:19.275Z,22.50
2018-07-26T20:40:47.799Z,22.20
2018-07-26T20:43:16.782Z,22.50
2018-07-26T20:48:14.050Z,21.90
2018-07-26T20:53:10.988Z,22.20
2018-07-26T20:55:39.540Z,22.10
2018-07-26T20:58:08.645Z,21.60
2018-07-26T21:03:05.479Z,21.90
2018-07-26T21:05:34.028Z,22.10
2018-07-26T21:08:02.549Z,21.70
2018-07-26T21:10:31.802Z,21.70
2018-07-26T21:13:00.434Z,21.80
2018-07-26T21:17:57.554Z,21.90
2018-07-26T21:22:54.184Z,21.70
2018-07-26T21:25:22.720Z,21.70
2018-07-26T21:27:51.333Z,21.90
2018-07-26T21:30:20.133Z,21.80
2018-07-26T21:32:48.813Z,21.70
2018-07-26T21:35:17.439Z,21.80
2018-07-26T21:37:45.961Z,21.80
2018-07-26T21:40:14.508Z,21.50
2018-07-26T21:47:39.520Z,21.60
2018-07-26T21:50:08.083Z,21.60
2018-07-26T21:55:04.786Z,22.00
2018-07-26T21:57:33.274Z,22.20
2018-07-26T22:00:01.721Z,21.70
2018-07-26T22:02:30.235Z,21.90
2018-07-26T22:04:58.739Z,21.90
2018-07-26T22:07:27.329Z,21.50
2018-07-26T22:09:55.825Z,21.70
2018-07-26T22:12:24.275Z,21.50
2018-07-26T22:14:52.739Z,21.30
2018-07-26T22:17:21.232Z,21.30
2018-07-26T22:19:49.711Z,21.10
2018-07-26T22:22:18.273Z,21.30
2018-07-26T22:24:46.725Z,21.40
2018-07-26T22:27:15.147Z,21.30
2018-07-26T22:29:43.653Z,21.40
2018-07-26T22:34:40.241Z,21.20
2018-07-26T22:37:08.770Z,21.30
2018-07-26T22:39:37.307Z,21.30
2018-07-26T22:42:05.805Z,21.50
2018-07-26T22:44:34.328Z,21.40
2018-07-26T22:47:02.798Z,21.00
2018-07-26T22:49:31.291Z,21.40
2018-07-26T22:51:59.761Z,21.10
2018-07-26T22:59:24.617Z,20.80
2018-07-26T23:01:53.085Z,21.30
2018-07-26T23:04:21.623Z,21.00
2018-07-26T23:06:50.115Z,21.30
2018-07-26T23:09:18.589Z,21.20
2018-07-26T23:11:47.138Z,21.20
2018-07-26T23:14:15.675Z,21.10
2018-07-26T23:16:44.263Z,21.00
2018-07-26T23:19:12.727Z,21.20
2018-07-26T23:21:41.235Z,21.00
2018-07-26T23:24:09.672Z,20.80
2018-07-26T23:26:38.317Z,20.70
2018-07-26T23:31:35.048Z,20.70
2018-07-26T23:34:03.748Z,20.90
2018-07-26T23:36:32.277Z,21.10
2018-07-26T23:39:00.722Z,20.90
2018-07-26T23:41:29.225Z,20.90
2018-07-26T23:43:57.750Z,21.20
2018-07-26T23:48:54.363Z,21.00
2018-07-26T23:51:22.800Z,20.90
2018-07-26T23:53:51.249Z,20.70
2018-07-26T23:56:19.777Z,20.90
